sensor_id;sensor_type;location;lat;lon;timestamp;temperature;humidity
46976;DHT22;32724;51.094;6.996;2023-02-28T00:02:13;-0.20;99.90
46976;DHT22;32724;51.094;6.996;2023-02-28T00:04:39;-0.30;99.90
46976;DHT22;32724;51.094;6.996;2023-02-28T00:07:04;-0.30;99.90
46976;DHT22;32724;51.094;6.996;2023-02-28T00:09:30;-0.20;99.90
46976;DHT22;32724;51.094;6.996;2023-02-28T00:11:55;-0.20;99.90
46976;DHT22;32724;51.094;6.996;2023-02-28T00:14:21;-0.30;99.90
46976;DHT22;32724;51.094;6.996;2023-02-28T00:16:46;-0.30;99.90
46976;DHT22;32724;51.094;6.996;2023-02-28T00:19:12;-0.30;99.90
46976;DHT22;32724;51.094;6.996;2023-02-28T00:21:38;-0.40;99.90
46976;DHT22;32724;51.094;6.996;2023-02-28T00:24:06;-0.40;99.90
46976;DHT22;32724;51.094;6.996;2023-02-28T00:26:31;-0.40;99.90
46976;DHT22;32724;51.094;6.996;2023-02-28T00:28:57;-0.40;99.90
46976;DHT22;32724;51.094;6.996;2023-02-28T00:31:22;-0.40;99.90
46976;DHT22;32724;51.094;6.996;2023-02-28T00:33:48;-0.50;99.90
46976;DHT22;32724;51.094;6.996;2023-02-28T00:36:13;-0.50;99.90
46976;DHT22;32724;51.094;6.996;2023-02-28T00:38:40;-0.50;99.90
46976;DHT22;32724;51.094;6.996;2023-02-28T00:41:06;-0.50;99.90
46976;DHT22;32724;51.094;6.996;2023-02-28T00:43:33;-0.40;99.90
46976;DHT22;32724;51.094;6.996;2023-02-28T00:45:59;-0.40;99.90
46976;DHT22;32724;51.094;6.996;2023-02-28T00:48:24;-0.50;99.90
46976;DHT22;32724;51.094;6.996;2023-02-28T00:50:49;-0.60;99.90
46976;DHT22;32724;51.094;6.996;2023-02-28T00:53:15;-0.60;99.90
46976;DHT22;32724;51.094;6.996;2023-02-28T00:55:40;-0.70;99.90
46976;DHT22;32724;51.094;6.996;2023-02-28T00:58:06;-0.80;99.90
46976;DHT22;32724;51.094;6.996;2023-02-28T01:00:31;-0.90;99.90
46976;DHT22;32724;51.094;6.996;2023-02-28T01:02:57;-1.00;99.90
46976;DHT22;32724;51.094;6.996;2023-02-28T01:05:22;-1.00;99.90
46976;DHT22;32724;51.094;6.996;2023-02-28T01:07:48;-1.00;99.90
46976;DHT22;32724;51.094;6.996;2023-02-28T01:10:13;-1.00;99.90
46976;DHT22;32724;51.094;6.996;2023-02-28T01:12:38;-1.10;99.90
46976;DHT22;32724;51.094;6.996;2023-02-28T01:15:04;-1.10;99.90
46976;DHT22;32724;51.094;6.996;2023-02-28T01:17:30;-1.10;99.90
46976;DHT22;32724;51.094;6.996;2023-02-28T01:19:55;-1.00;99.90
46976;DHT22;32724;51.094;6.996;2023-02-28T01:22:21;-1.00;99.90
46976;DHT22;32724;51.094;6.996;2023-02-28T01:24:46;-1.10;99.90
46976;DHT22;32724;51.094;6.996;2023-02-28T01:27:13;-1.10;99.90
46976;DHT22;32724;51.094;6.996;2023-02-28T01:29:38;-1.30;99.90
46976;DHT22;32724;51.094;6.996;2023-02-28T01:32:04;-1.40;99.90
46976;DHT22;32724;51.094;6.996;2023-02-28T01:34:29;-1.40;99.90
46976;DHT22;32724;51.094;6.996;2023-02-28T01:36:55;-1.50;99.90
46976;DHT22;32724;51.094;6.996;2023-02-28T01:39:20;-1.50;99.90
46976;DHT22;32724;51.094;6.996;2023-02-28T01:41:46;-1.50;99.90
46976;DHT22;32724;51.094;6.996;2023-02-28T01:46:56;-1.40;99.90
46976;DHT22;32724;51.094;6.996;2023-02-28T01:49:22;-1.40;99.90
46976;DHT22;32724;51.094;6.996;2023-02-28T01:51:50;-1.40;99.90
46976;DHT22;32724;51.094;6.996;2023-02-28T01:54:18;-1.30;99.90
46976;DHT22;32724;51.094;6.996;2023-02-28T01:56:49;-1.30;99.90
46976;DHT22;32724;51.094;6.996;2023-02-28T01:59:21;-1.30;99.90
46976;DHT22;32724;51.094;6.996;2023-02-28T02:01:48;-1.30;99.90
46976;DHT22;32724;51.094;6.996;2023-02-28T02:04:13;-1.40;99.90
46976;DHT22;32724;51.094;6.996;2023-02-28T02:06:42;-1.30;99.90
46976;DHT22;32724;51.094;6.996;2023-02-28T02:09:08;-1.30;99.90
46976;DHT22;32724;51.094;6.996;2023-02-28T02:11:34;-1.40;99.90
46976;DHT22;32724;51.094;6.996;2023-02-28T02:16:40;-1.50;99.90
46976;DHT22;32724;51.094;6.996;2023-02-28T02:21:49;-1.60;99.90
46976;DHT22;32724;51.094;6.996;2023-02-28T02:27:13;-1.80;99.90
46976;DHT22;32724;51.094;6.996;2023-02-28T02:34:59;-1.80;99.90
46976;DHT22;32724;51.094;6.996;2023-02-28T02:45:01;-1.70;99.90
46976;DHT22;32724;51.094;6.996;2023-02-28T02:47:28;-1.60;99.90
46976;DHT22;32724;51.094;6.996;2023-02-28T02:49:55;-1.50;99.90
46976;DHT22;32724;51.094;6.996;2023-02-28T02:52:22;-1.60;99.90
46976;DHT22;32724;51.094;6.996;2023-02-28T02:54:50;-1.60;99.90
46976;DHT22;32724;51.094;6.996;2023-02-28T02:57:22;-1.20;99.90
46976;DHT22;32724;51.094;6.996;2023-02-28T02:59:49;-1.50;99.90
46976;DHT22;32724;51.094;6.996;2023-02-28T03:02:16;-1.70;99.90
46976;DHT22;32724;51.094;6.996;2023-02-28T03:04:48;-1.90;99.90
46976;DHT22;32724;51.094;6.996;2023-02-28T03:07:15;-2.00;99.90
46976;DHT22;32724;51.094;6.996;2023-02-28T03:09:49;-2.10;99.90
46976;DHT22;32724;51.094;6.996;2023-02-28T03:12:15;-2.20;99.90
46976;DHT22;32724;51.094;6.996;2023-02-28T03:14:51;-2.20;99.90
46976;DHT22;32724;51.094;6.996;2023-02-28T03:24:50;-2.50;99.90
46976;DHT22;32724;51.094;6.996;2023-02-28T03:27:21;-2.60;99.90
46976;DHT22;32724;51.094;6.996;2023-02-28T03:29:58;-2.60;99.90
46976;DHT22;32724;51.094;6.996;2023-02-28T03:33:11;-2.60;99.90
46976;DHT22;32724;51.094;6.996;2023-02-28T03:35:16;-2.50;99.90
46976;DHT22;32724;51.094;6.996;2023-02-28T03:37:47;-2.50;99.90
46976;DHT22;32724;51.094;6.996;2023-02-28T03:40:15;-2.50;99.90
46976;DHT22;32724;51.094;6.996;2023-02-28T03:42:43;-2.50;99.90
46976;DHT22;32724;51.094;6.996;2023-02-28T03:45:11;-2.50;99.90
46976;DHT22;32724;51.094;6.996;2023-02-28T03:50:27;-2.60;99.90
46976;DHT22;32724;51.094;6.996;2023-02-28T03:52:57;-2.60;99.90
46976;DHT22;32724;51.094;6.996;2023-02-28T03:55:27;-2.60;99.90
46976;DHT22;32724;51.094;6.996;2023-02-28T03:57:58;-2.50;99.90
46976;DHT22;32724;51.094;6.996;2023-02-28T04:00:46;-2.40;99.90
46976;DHT22;32724;51.094;6.996;2023-02-28T04:03:34;-2.30;99.90
46976;DHT22;32724;51.094;6.996;2023-02-28T04:06:00;-2.20;99.90
46976;DHT22;32724;51.094;6.996;2023-02-28T04:08:25;-2.20;99.90
46976;DHT22;32724;51.094;6.996;2023-02-28T04:10:53;-2.10;99.90
46976;DHT22;32724;51.094;6.996;2023-02-28T04:13:20;-2.00;99.90
46976;DHT22;32724;51.094;6.996;2023-02-28T04:15:45;-1.90;99.90
46976;DHT22;32724;51.094;6.996;2023-02-28T04:18:10;-1.80;99.90
46976;DHT22;32724;51.094;6.996;2023-02-28T04:20:36;-1.70;99.90
46976;DHT22;32724;51.094;6.996;2023-02-28T04:23:01;-1.50;99.90
46976;DHT22;32724;51.094;6.996;2023-02-28T04:25:27;-1.40;99.90
46976;DHT22;32724;51.094;6.996;2023-02-28T04:27:52;-1.50;99.90
46976;DHT22;32724;51.094;6.996;2023-02-28T04:30:18;-1.60;99.90
46976;DHT22;32724;51.094;6.996;2023-02-28T04:32:43;-1.50;99.90
46976;DHT22;32724;51.094;6.996;2023-02-28T04:35:09;-1.40;99.90
46976;DHT22;32724;51.094;6.996;2023-02-28T04:37:34;-1.40;99.90
46976;DHT22;32724;51.094;6.996;2023-02-28T04:40:02;-1.40;99.90
46976;DHT22;32724;51.094;6.996;2023-02-28T04:42:28;-1.40;99.90
46976;DHT22;32724;51.094;6.996;2023-02-28T04:45:00;-1.30;99.90
46976;DHT22;32724;51.094;6.996;2023-02-28T04:47:26;-1.40;99.90
46976;DHT22;32724;51.094;6.996;2023-02-28T04:49:51;-1.30;99.90
46976;DHT22;32724;51.094;6.996;2023-02-28T04:52:17;-1.30;99.90
46976;DHT22;32724;51.094;6.996;2023-02-28T04:54:42;-1.30;99.90
46976;DHT22;32724;51.094;6.996;2023-02-28T04:57:08;-1.30;99.90
46976;DHT22;32724;51.094;6.996;2023-02-28T04:59:39;-1.30;99.90
46976;DHT22;32724;51.094;6.996;2023-02-28T05:02:04;-1.30;99.90
46976;DHT22;32724;51.094;6.996;2023-02-28T05:04:35;-1.30;99.90
46976;DHT22;32724;51.094;6.996;2023-02-28T05:07:01;-1.30;99.90
46976;DHT22;32724;51.094;6.996;2023-02-28T05:09:26;-1.40;99.90
46976;DHT22;32724;51.094;6.996;2023-02-28T05:11:54;-1.40;99.90
46976;DHT22;32724;51.094;6.996;2023-02-28T05:14:19;-1.30;99.90
46976;DHT22;32724;51.094;6.996;2023-02-28T05:16:45;-1.30;99.90
46976;DHT22;32724;51.094;6.996;2023-02-28T05:19:10;-1.30;99.90
46976;DHT22;32724;51.094;6.996;2023-02-28T05:21:37;-1.30;99.90
46976;DHT22;32724;51.094;6.996;2023-02-28T05:24:04;-1.20;99.90
46976;DHT22;32724;51.094;6.996;2023-02-28T05:26:30;-1.30;99.90
46976;DHT22;32724;51.094;6.996;2023-02-28T05:28:55;-1.30;99.90
46976;DHT22;32724;51.094;6.996;2023-02-28T05:31:21;-1.30;99.90
46976;DHT22;32724;51.094;6.996;2023-02-28T05:33:47;-1.30;99.90
46976;DHT22;32724;51.094;6.996;2023-02-28T05:36:12;-1.30;99.90
46976;DHT22;32724;51.094;6.996;2023-02-28T05:38:38;-1.30;99.90
46976;DHT22;32724;51.094;6.996;2023-02-28T05:41:07;-1.30;99.90
46976;DHT22;32724;51.094;6.996;2023-02-28T05:43:33;-1.20;99.90
46976;DHT22;32724;51.094;6.996;2023-02-28T05:45:58;-1.30;99.90
46976;DHT22;32724;51.094;6.996;2023-02-28T05:48:24;-1.30;99.90
46976;DHT22;32724;51.094;6.996;2023-02-28T05:50:51;-1.30;99.90
46976;DHT22;32724;51.094;6.996;2023-02-28T05:53:16;-1.40;99.90
46976;DHT22;32724;51.094;6.996;2023-02-28T05:55:42;-1.40;99.90
46976;DHT22;32724;51.094;6.996;2023-02-28T05:58:07;-1.00;99.90
46976;DHT22;32724;51.094;6.996;2023-02-28T06:00:33;-1.20;99.90
46976;DHT22;32724;51.094;6.996;2023-02-28T06:02:58;-1.30;99.90
46976;DHT22;32724;51.094;6.996;2023-02-28T06:05:26;-1.30;99.90
46976;DHT22;32724;51.094;6.996;2023-02-28T06:07:53;-1.50;99.90
46976;DHT22;32724;51.094;6.996;2023-02-28T06:10:19;-1.50;99.90
46976;DHT22;32724;51.094;6.996;2023-02-28T06:12:44;-1.60;99.90
46976;DHT22;32724;51.094;6.996;2023-02-28T06:15:12;-1.70;99.90
46976;DHT22;32724;51.094;6.996;2023-02-28T06:17:37;-1.60;99.90
46976;DHT22;32724;51.094;6.996;2023-02-28T06:20:03;-1.60;99.90
46976;DHT22;32724;51.094;6.996;2023-02-28T06:22:29;-1.60;99.90
46976;DHT22;32724;51.094;6.996;2023-02-28T06:24:54;-1.60;99.90
46976;DHT22;32724;51.094;6.996;2023-02-28T06:27:22;-1.60;99.90
46976;DHT22;32724;51.094;6.996;2023-02-28T06:29:47;-1.60;99.90
46976;DHT22;32724;51.094;6.996;2023-02-28T06:32:13;-1.50;99.90
46976;DHT22;32724;51.094;6.996;2023-02-28T06:34:38;-1.40;99.90
46976;DHT22;32724;51.094;6.996;2023-02-28T06:37:04;-1.30;99.90
46976;DHT22;32724;51.094;6.996;2023-02-28T06:39:30;-1.30;99.90
46976;DHT22;32724;51.094;6.996;2023-02-28T06:41:56;-1.30;99.90
46976;DHT22;32724;51.094;6.996;2023-02-28T06:44:21;-1.40;99.90
46976;DHT22;32724;51.094;6.996;2023-02-28T06:46:47;-1.40;99.90
46976;DHT22;32724;51.094;6.996;2023-02-28T06:49:13;-1.40;99.90
46976;DHT22;32724;51.094;6.996;2023-02-28T06:51:39;-1.40;99.90
46976;DHT22;32724;51.094;6.996;2023-02-28T06:54:05;-1.40;99.90
46976;DHT22;32724;51.094;6.996;2023-02-28T06:56:30;-1.40;99.90
46976;DHT22;32724;51.094;6.996;2023-02-28T06:58:56;-1.40;99.90
46976;DHT22;32724;51.094;6.996;2023-02-28T07:01:22;-1.40;99.90
46976;DHT22;32724;51.094;6.996;2023-02-28T07:03:48;-1.30;99.90
46976;DHT22;32724;51.094;6.996;2023-02-28T07:06:18;-1.20;99.90
46976;DHT22;32724;51.094;6.996;2023-02-28T07:08:44;-1.10;99.90
46976;DHT22;32724;51.094;6.996;2023-02-28T07:11:09;-1.00;99.90
46976;DHT22;32724;51.094;6.996;2023-02-28T07:13:35;-0.90;99.90
46976;DHT22;32724;51.094;6.996;2023-02-28T07:16:02;-0.80;99.90
46976;DHT22;32724;51.094;6.996;2023-02-28T07:18:28;-0.70;99.90
46976;DHT22;32724;51.094;6.996;2023-02-28T07:20:53;-0.60;99.90
46976;DHT22;32724;51.094;6.996;2023-02-28T07:23:19;-0.50;99.90
46976;DHT22;32724;51.094;6.996;2023-02-28T07:25:44;-0.50;99.90
46976;DHT22;32724;51.094;6.996;2023-02-28T07:28:11;-0.30;99.90
46976;DHT22;32724;51.094;6.996;2023-02-28T07:30:36;-0.30;99.90
46976;DHT22;32724;51.094;6.996;2023-02-28T07:33:01;-0.20;99.90
46976;DHT22;32724;51.094;6.996;2023-02-28T07:35:27;0.00;99.90
46976;DHT22;32724;51.094;6.996;2023-02-28T07:37:52;0.10;99.90
46976;DHT22;32724;51.094;6.996;2023-02-28T07:40:18;0.30;99.90
46976;DHT22;32724;51.094;6.996;2023-02-28T07:42:44;0.40;99.90
46976;DHT22;32724;51.094;6.996;2023-02-28T07:45:10;0.50;99.90
46976;DHT22;32724;51.094;6.996;2023-02-28T07:47:40;0.60;99.90
46976;DHT22;32724;51.094;6.996;2023-02-28T07:50:06;0.70;99.90
46976;DHT22;32724;51.094;6.996;2023-02-28T07:52:32;0.80;99.90
46976;DHT22;32724;51.094;6.996;2023-02-28T07:54:57;0.80;99.90
46976;DHT22;32724;51.094;6.996;2023-02-28T07:57:23;0.90;99.90
46976;DHT22;32724;51.094;6.996;2023-02-28T07:59:48;1.10;99.90
46976;DHT22;32724;51.094;6.996;2023-02-28T08:02:14;1.10;99.90
46976;DHT22;32724;51.094;6.996;2023-02-28T08:04:40;1.20;99.90
46976;DHT22;32724;51.094;6.996;2023-02-28T08:07:06;1.20;99.90
46976;DHT22;32724;51.094;6.996;2023-02-28T08:09:31;1.30;99.90
46976;DHT22;32724;51.094;6.996;2023-02-28T08:11:57;1.50;99.90
46976;DHT22;32724;51.094;6.996;2023-02-28T08:14:23;1.70;99.90
46976;DHT22;32724;51.094;6.996;2023-02-28T08:16:48;1.80;99.90
46976;DHT22;32724;51.094;6.996;2023-02-28T08:19:14;2.20;99.90
46976;DHT22;32724;51.094;6.996;2023-02-28T08:21:39;2.00;99.90
46976;DHT22;32724;51.094;6.996;2023-02-28T08:24:05;2.00;99.90
46976;DHT22;32724;51.094;6.996;2023-02-28T08:26:30;2.10;99.90
46976;DHT22;32724;51.094;6.996;2023-02-28T08:28:56;2.10;99.90
46976;DHT22;32724;51.094;6.996;2023-02-28T08:31:21;2.30;99.90
46976;DHT22;32724;51.094;6.996;2023-02-28T08:33:48;2.30;99.90
46976;DHT22;32724;51.094;6.996;2023-02-28T08:36:16;2.40;99.90
46976;DHT22;32724;51.094;6.996;2023-02-28T08:38:41;2.50;99.90
46976;DHT22;32724;51.094;6.996;2023-02-28T08:41:08;2.50;99.90
46976;DHT22;32724;51.094;6.996;2023-02-28T08:43:34;2.60;99.90
46976;DHT22;32724;51.094;6.996;2023-02-28T08:46:00;2.70;99.90
46976;DHT22;32724;51.094;6.996;2023-02-28T08:48:27;2.80;99.90
46976;DHT22;32724;51.094;6.996;2023-02-28T08:51:00;3.00;99.90
46976;DHT22;32724;51.094;6.996;2023-02-28T08:53:26;2.90;99.90
46976;DHT22;32724;51.094;6.996;2023-02-28T08:55:55;2.90;99.90
46976;DHT22;32724;51.094;6.996;2023-02-28T08:58:21;3.00;99.90
46976;DHT22;32724;51.094;6.996;2023-02-28T09:00:46;3.10;99.90
46976;DHT22;32724;51.094;6.996;2023-02-28T09:03:12;3.20;99.90
46976;DHT22;32724;51.094;6.996;2023-02-28T09:05:37;3.10;99.90
46976;DHT22;32724;51.094;6.996;2023-02-28T09:08:03;3.10;99.90
46976;DHT22;32724;51.094;6.996;2023-02-28T09:10:28;3.10;99.90
46976;DHT22;32724;51.094;6.996;2023-02-28T09:12:54;2.90;99.90
46976;DHT22;32724;51.094;6.996;2023-02-28T09:15:19;2.90;99.90
46976;DHT22;32724;51.094;6.996;2023-02-28T09:17:44;3.00;99.90
46976;DHT22;32724;51.094;6.996;2023-02-28T09:20:10;3.00;99.90
46976;DHT22;32724;51.094;6.996;2023-02-28T09:22:36;3.00;99.90
46976;DHT22;32724;51.094;6.996;2023-02-28T09:25:01;3.10;99.90
46976;DHT22;32724;51.094;6.996;2023-02-28T09:27:27;3.50;99.90
46976;DHT22;32724;51.094;6.996;2023-02-28T09:29:52;3.80;98.20
46976;DHT22;32724;51.094;6.996;2023-02-28T09:32:18;3.80;98.30
46976;DHT22;32724;51.094;6.996;2023-02-28T09:34:43;3.90;97.40
46976;DHT22;32724;51.094;6.996;2023-02-28T09:37:09;3.80;97.10
46976;DHT22;32724;51.094;6.996;2023-02-28T09:39:34;3.80;97.50
46976;DHT22;32724;51.094;6.996;2023-02-28T09:42:00;4.00;96.90
46976;DHT22;32724;51.094;6.996;2023-02-28T09:47:00;4.40;97.40
46976;DHT22;32724;51.094;6.996;2023-02-28T09:49:34;4.40;95.70
46976;DHT22;32724;51.094;6.996;2023-02-28T09:52:07;4.30;96.20
46976;DHT22;32724;51.094;6.996;2023-02-28T09:54:34;4.40;96.60
46976;DHT22;32724;51.094;6.996;2023-02-28T09:57:01;4.60;95.70
46976;DHT22;32724;51.094;6.996;2023-02-28T09:59:40;4.80;96.50
46976;DHT22;32724;51.094;6.996;2023-02-28T10:02:13;4.50;95.20
46976;DHT22;32724;51.094;6.996;2023-02-28T10:04:54;4.10;95.60
46976;DHT22;32724;51.094;6.996;2023-02-28T10:09:55;3.90;96.00
46976;DHT22;32724;51.094;6.996;2023-02-28T10:12:22;3.90;95.40
46976;DHT22;32724;51.094;6.996;2023-02-28T10:14:49;3.90;96.20
46976;DHT22;32724;51.094;6.996;2023-02-28T10:17:18;4.10;96.20
46976;DHT22;32724;51.094;6.996;2023-02-28T10:22:34;4.00;95.90
46976;DHT22;32724;51.094;6.996;2023-02-28T10:25:01;4.00;96.40
46976;DHT22;32724;51.094;6.996;2023-02-28T10:27:30;3.70;96.60
46976;DHT22;32724;51.094;6.996;2023-02-28T10:29:57;3.80;96.80
46976;DHT22;32724;51.094;6.996;2023-02-28T10:32:24;4.10;96.90
46976;DHT22;32724;51.094;6.996;2023-02-28T10:35:10;4.60;97.80
46976;DHT22;32724;51.094;6.996;2023-02-28T10:37:43;4.80;96.10
46976;DHT22;32724;51.094;6.996;2023-02-28T10:40:31;4.80;95.50
46976;DHT22;32724;51.094;6.996;2023-02-28T10:42:59;4.80;94.70
46976;DHT22;32724;51.094;6.996;2023-02-28T10:45:25;4.60;94.00
46976;DHT22;32724;51.094;6.996;2023-02-28T10:55:41;4.60;95.40
46976;DHT22;32724;51.094;6.996;2023-02-28T10:58:23;4.70;94.40
46976;DHT22;32724;51.094;6.996;2023-02-28T11:00:49;4.70;95.10
46976;DHT22;32724;51.094;6.996;2023-02-28T11:03:27;4.80;94.30
46976;DHT22;32724;51.094;6.996;2023-02-28T11:05:53;4.70;94.40
46976;DHT22;32724;51.094;6.996;2023-02-28T11:08:19;4.60;95.10
46976;DHT22;32724;51.094;6.996;2023-02-28T11:10:53;4.60;95.40
46976;DHT22;32724;51.094;6.996;2023-02-28T11:13:24;4.70;95.40
46976;DHT22;32724;51.094;6.996;2023-02-28T11:15:52;4.70;94.70
46976;DHT22;32724;51.094;6.996;2023-02-28T11:18:20;4.80;96.00
46976;DHT22;32724;51.094;6.996;2023-02-28T11:20:50;5.10;95.80
46976;DHT22;32724;51.094;6.996;2023-02-28T11:23:16;5.00;94.90
46976;DHT22;32724;51.094;6.996;2023-02-28T11:26:02;4.60;95.00
46976;DHT22;32724;51.094;6.996;2023-02-28T11:28:31;4.70;95.50
46976;DHT22;32724;51.094;6.996;2023-02-28T11:30:59;4.80;95.60
46976;DHT22;32724;51.094;6.996;2023-02-28T11:35:51;4.70;96.50
46976;DHT22;32724;51.094;6.996;2023-02-28T11:38:17;4.60;95.70
46976;DHT22;32724;51.094;6.996;2023-02-28T11:40:47;4.50;96.50
46976;DHT22;32724;51.094;6.996;2023-02-28T11:43:30;4.50;96.40
46976;DHT22;32724;51.094;6.996;2023-02-28T11:46:06;4.70;96.00
46976;DHT22;32724;51.094;6.996;2023-02-28T11:48:41;4.80;96.20
46976;DHT22;32724;51.094;6.996;2023-02-28T11:51:21;4.90;95.50
46976;DHT22;32724;51.094;6.996;2023-02-28T11:53:51;4.90;95.50
46976;DHT22;32724;51.094;6.996;2023-02-28T11:56:23;5.10;95.20
46976;DHT22;32724;51.094;6.996;2023-02-28T12:01:45;5.20;94.70
46976;DHT22;32724;51.094;6.996;2023-02-28T12:04:52;5.00;94.90
46976;DHT22;32724;51.094;6.996;2023-02-28T12:07:13;5.10;95.00
46976;DHT22;32724;51.094;6.996;2023-02-28T12:14:47;4.80;94.70
46976;DHT22;32724;51.094;6.996;2023-02-28T12:20:02;4.70;95.40
46976;DHT22;32724;51.094;6.996;2023-02-28T12:25:02;4.30;95.50
46976;DHT22;32724;51.094;6.996;2023-02-28T12:27:42;4.60;96.20
46976;DHT22;32724;51.094;6.996;2023-02-28T12:32:44;4.90;94.60
46976;DHT22;32724;51.094;6.996;2023-02-28T12:35:14;5.10;95.10
46976;DHT22;32724;51.094;6.996;2023-02-28T12:37:43;5.00;94.50
46976;DHT22;32724;51.094;6.996;2023-02-28T12:40:12;5.10;94.20
46976;DHT22;32724;51.094;6.996;2023-02-28T12:42:42;5.20;95.30
46976;DHT22;32724;51.094;6.996;2023-02-28T12:45:14;5.20;94.80
46976;DHT22;32724;51.094;6.996;2023-02-28T12:47:42;5.30;94.00
46976;DHT22;32724;51.094;6.996;2023-02-28T12:50:09;5.30;93.80
46976;DHT22;32724;51.094;6.996;2023-02-28T12:55:11;5.40;93.80
46976;DHT22;32724;51.094;6.996;2023-02-28T12:57:41;5.50;93.10
46976;DHT22;32724;51.094;6.996;2023-02-28T13:00:11;5.50;92.80
46976;DHT22;32724;51.094;6.996;2023-02-28T13:10:24;5.20;93.00
46976;DHT22;32724;51.094;6.996;2023-02-28T13:12:51;5.30;92.10
46976;DHT22;32724;51.094;6.996;2023-02-28T13:15:18;5.30;92.70
46976;DHT22;32724;51.094;6.996;2023-02-28T13:17:52;5.30;92.60
46976;DHT22;32724;51.094;6.996;2023-02-28T13:20:20;5.30;92.50
46976;DHT22;32724;51.094;6.996;2023-02-28T13:22:49;5.30;92.70
46976;DHT22;32724;51.094;6.996;2023-02-28T13:27:47;5.30;93.00
46976;DHT22;32724;51.094;6.996;2023-02-28T13:33:17;5.30;92.70
46976;DHT22;32724;51.094;6.996;2023-02-28T13:35:43;5.40;92.80
46976;DHT22;32724;51.094;6.996;2023-02-28T13:38:17;5.50;92.50
46976;DHT22;32724;51.094;6.996;2023-02-28T13:40:46;5.70;92.80
46976;DHT22;32724;51.094;6.996;2023-02-28T13:43:12;5.70;92.30
46976;DHT22;32724;51.094;6.996;2023-02-28T13:45:44;5.70;91.60
46976;DHT22;32724;51.094;6.996;2023-02-28T13:48:27;5.50;92.30
46976;DHT22;32724;51.094;6.996;2023-02-28T13:50:54;5.60;92.70
46976;DHT22;32724;51.094;6.996;2023-02-28T13:53:29;5.70;92.10
46976;DHT22;32724;51.094;6.996;2023-02-28T13:56:17;5.80;92.30
46976;DHT22;32724;51.094;6.996;2023-02-28T13:59:06;5.80;92.30
46976;DHT22;32724;51.094;6.996;2023-02-28T14:01:41;5.70;91.30
46976;DHT22;32724;51.094;6.996;2023-02-28T14:04:18;5.70;91.30
46976;DHT22;32724;51.094;6.996;2023-02-28T14:06:50;5.70;92.00
46976;DHT22;32724;51.094;6.996;2023-02-28T14:12:49;5.80;91.10
46976;DHT22;32724;51.094;6.996;2023-02-28T14:17:12;5.80;91.60
46976;DHT22;32724;51.094;6.996;2023-02-28T14:19:39;5.80;91.20
46976;DHT22;32724;51.094;6.996;2023-02-28T14:27:42;5.80;90.80
46976;DHT22;32724;51.094;6.996;2023-02-28T14:30:26;5.70;91.00
46976;DHT22;32724;51.094;6.996;2023-02-28T14:35:36;5.70;91.50
46976;DHT22;32724;51.094;6.996;2023-02-28T14:38:05;5.70;91.20
46976;DHT22;32724;51.094;6.996;2023-02-28T14:40:33;5.80;92.80
46976;DHT22;32724;51.094;6.996;2023-02-28T14:43:00;5.50;92.20
46976;DHT22;32724;51.094;6.996;2023-02-28T14:45:26;5.50;91.90
46976;DHT22;32724;51.094;6.996;2023-02-28T14:47:53;5.40;92.50
46976;DHT22;32724;51.094;6.996;2023-02-28T14:50:20;5.50;92.10
46976;DHT22;32724;51.094;6.996;2023-02-28T14:52:45;5.60;92.10
46976;DHT22;32724;51.094;6.996;2023-02-28T14:55:12;5.70;91.50
46976;DHT22;32724;51.094;6.996;2023-02-28T14:57:39;5.70;91.60
46976;DHT22;32724;51.094;6.996;2023-02-28T15:02:36;5.80;91.50
46976;DHT22;32724;51.094;6.996;2023-02-28T15:07:37;5.70;91.40
46976;DHT22;32724;51.094;6.996;2023-02-28T15:10:07;5.80;91.40
46976;DHT22;32724;51.094;6.996;2023-02-28T15:12:33;5.80;91.30
46976;DHT22;32724;51.094;6.996;2023-02-28T15:14:59;5.90;91.90
46976;DHT22;32724;51.094;6.996;2023-02-28T15:17:25;5.80;91.70
46976;DHT22;32724;51.094;6.996;2023-02-28T15:19:51;5.80;91.60
46976;DHT22;32724;51.094;6.996;2023-02-28T15:22:19;5.80;91.50
46976;DHT22;32724;51.094;6.996;2023-02-28T15:24:50;5.90;91.40
46976;DHT22;32724;51.094;6.996;2023-02-28T15:27:21;5.90;91.40
46976;DHT22;32724;51.094;6.996;2023-02-28T15:29:53;5.90;91.00
46976;DHT22;32724;51.094;6.996;2023-02-28T15:32:29;5.90;91.50
46976;DHT22;32724;51.094;6.996;2023-02-28T15:34:55;5.90;90.90
46976;DHT22;32724;51.094;6.996;2023-02-28T15:37:38;5.90;90.90
46976;DHT22;32724;51.094;6.996;2023-02-28T15:45:35;5.80;90.90
46976;DHT22;32724;51.094;6.996;2023-02-28T15:48:04;5.80;91.00
46976;DHT22;32724;51.094;6.996;2023-02-28T15:50:30;5.80;91.30
46976;DHT22;32724;51.094;6.996;2023-02-28T15:52:56;5.80;91.00
46976;DHT22;32724;51.094;6.996;2023-02-28T15:57:48;5.80;91.60
46976;DHT22;32724;51.094;6.996;2023-02-28T16:00:15;5.80;92.20
46976;DHT22;32724;51.094;6.996;2023-02-28T16:02:41;5.70;91.70
46976;DHT22;32724;51.094;6.996;2023-02-28T16:07:33;5.70;91.80
46976;DHT22;32724;51.094;6.996;2023-02-28T16:09:59;5.50;92.20
46976;DHT22;32724;51.094;6.996;2023-02-28T16:12:29;5.30;93.00
46976;DHT22;32724;51.094;6.996;2023-02-28T16:14:55;5.30;92.50
46976;DHT22;32724;51.094;6.996;2023-02-28T16:17:22;5.30;92.90
46976;DHT22;32724;51.094;6.996;2023-02-28T16:19:49;5.30;92.80
46976;DHT22;32724;51.094;6.996;2023-02-28T16:22:14;5.30;93.00
46976;DHT22;32724;51.094;6.996;2023-02-28T16:24:39;5.30;92.50
46976;DHT22;32724;51.094;6.996;2023-02-28T16:27:05;5.30;92.80
46976;DHT22;32724;51.094;6.996;2023-02-28T16:29:34;5.30;92.80
46976;DHT22;32724;51.094;6.996;2023-02-28T16:32:00;5.30;92.70
46976;DHT22;32724;51.094;6.996;2023-02-28T16:34:26;5.30;92.80
46976;DHT22;32724;51.094;6.996;2023-02-28T16:36:52;5.20;92.90
46976;DHT22;32724;51.094;6.996;2023-02-28T16:39:17;5.10;92.90
46976;DHT22;32724;51.094;6.996;2023-02-28T16:41:45;5.20;93.40
46976;DHT22;32724;51.094;6.996;2023-02-28T16:44:46;5.20;94.40
46976;DHT22;32724;51.094;6.996;2023-02-28T16:47:04;5.10;95.20
46976;DHT22;32724;51.094;6.996;2023-02-28T16:49:30;5.00;95.90
46976;DHT22;32724;51.094;6.996;2023-02-28T16:51:55;4.90;96.50
46976;DHT22;32724;51.094;6.996;2023-02-28T16:54:21;4.80;97.10
46976;DHT22;32724;51.094;6.996;2023-02-28T16:56:47;4.70;97.60
46976;DHT22;32724;51.094;6.996;2023-02-28T16:59:13;4.60;98.10
46976;DHT22;32724;51.094;6.996;2023-02-28T17:01:40;4.50;98.50
46976;DHT22;32724;51.094;6.996;2023-02-28T17:04:05;4.50;98.80
46976;DHT22;32724;51.094;6.996;2023-02-28T17:06:31;4.40;99.00
46976;DHT22;32724;51.094;6.996;2023-02-28T17:08:57;4.30;99.30
46976;DHT22;32724;51.094;6.996;2023-02-28T17:11:23;3.90;99.90
46976;DHT22;32724;51.094;6.996;2023-02-28T17:13:49;4.00;99.90
46976;DHT22;32724;51.094;6.996;2023-02-28T17:16:31;3.90;99.90
46976;DHT22;32724;51.094;6.996;2023-02-28T17:19:04;3.90;99.90
46976;DHT22;32724;51.094;6.996;2023-02-28T17:21:30;3.80;99.90
46976;DHT22;32724;51.094;6.996;2023-02-28T17:23:56;3.90;99.90
46976;DHT22;32724;51.094;6.996;2023-02-28T17:26:22;3.80;99.90
46976;DHT22;32724;51.094;6.996;2023-02-28T17:28:50;3.80;99.90
46976;DHT22;32724;51.094;6.996;2023-02-28T17:31:16;3.70;99.90
46976;DHT22;32724;51.094;6.996;2023-02-28T17:33:41;3.70;99.90
46976;DHT22;32724;51.094;6.996;2023-02-28T17:36:09;3.40;99.90
46976;DHT22;32724;51.094;6.996;2023-02-28T17:38:36;3.10;99.90